Time;durP1;ratioP1;P1;durP2;ratioP2;P2;SDS_P1;SDS_P2;PMS_P1;PMS_P2;Temp;Humidity;BMP_temperature;BMP_pressure;BME280_temperature;BME280_humidity;BME280_pressure;Samples;Min_cycle;Max_cycle;Signal;HPM_P1;HPM_P2
2022/03/20 00:01:31;;;;;;;;;97.75;80.00;;;;;-7.03;100.00;103873.28;3722610;38;17941;-52
2022/03/20 00:03:58;;;;;;;;;100.25;84.25;;;;;-7.12;100.00;103874.97;3722707;38;18013;-50
2022/03/20 00:06:26;;;;;;;;;101.25;85.25;;;;;-7.16;100.00;103875.84;3722749;37;17934;-51
2022/03/20 00:08:54;;;;;;;;;103.50;84.25;;;;;-7.22;100.00;103881.03;3722600;38;18024;-52
2022/03/20 00:11:21;;;;;;;;;97.25;74.00;;;;;-7.21;100.00;103882.81;3722667;38;17937;-53
2022/03/20 00:13:49;;;;;;;;;101.75;74.00;;;;;-7.23;100.00;103884.53;3721863;38;17943;-51
2022/03/20 00:16:16;;;;;;;;;99.00;78.00;;;;;-7.29;100.00;103882.78;3722609;37;17948;-51
2022/03/20 00:18:43;;;;;;;;;103.00;87.25;;;;;-7.40;100.00;103885.31;3721983;38;17933;-50
2022/03/20 00:21:11;;;;;;;;;102.25;80.50;;;;;-7.47;100.00;103882.62;3722545;38;18001;-51
2022/03/20 00:23:39;;;;;;;;;88.00;71.25;;;;;-7.44;100.00;103890.53;3722066;37;17918;-52
2022/03/20 00:26:07;;;;;;;;;90.75;67.25;;;;;-7.46;100.00;103881.75;3722524;37;17919;-50
2022/03/20 00:28:34;;;;;;;;;97.00;76.50;;;;;-7.44;100.00;103880.91;3722533;37;17935;-51
2022/03/20 00:31:01;;;;;;;;;92.75;71.50;;;;;-7.46;100.00;103880.00;3721971;37;17924;-50
2022/03/20 00:33:28;;;;;;;;;95.00;77.75;;;;;-7.37;100.00;103873.94;3722583;37;17890;-50
2022/03/20 00:35:56;;;;;;;;;94.25;71.75;;;;;-7.41;100.00;103880.03;3722547;37;17899;-51
2022/03/20 00:38:24;;;;;;;;;80.75;62.50;;;;;-7.40;100.00;103887.06;3722244;38;18162;-52
2022/03/20 00:40:52;;;;;;;;;97.00;76.00;;;;;-7.44;100.00;103887.91;3722288;37;18075;-51
2022/03/20 00:43:20;;;;;;;;;91.75;70.25;;;;;-7.43;100.00;103885.28;3721595;38;17892;-51
2022/03/20 00:45:48;;;;;;;;;100.75;78.25;;;;;-7.40;100.00;103887.06;3722328;37;18148;-51
2022/03/20 00:48:15;;;;;;;;;105.25;83.50;;;;;-7.49;100.00;103879.97;3722300;37;17943;-50
2022/03/20 00:50:42;;;;;;;;;99.00;78.00;;;;;-7.53;100.00;103885.19;3722296;37;18080;-50
2022/03/20 00:53:10;;;;;;;;;95.50;75.50;;;;;-7.53;100.00;103874.69;3721616;38;18089;-50
2022/03/20 00:55:37;;;;;;;;;98.50;71.25;;;;;-7.45;100.00;103878.25;3722709;38;18036;-50
2022/03/20 00:58:04;;;;;;;;;100.75;80.50;;;;;-7.34;100.00;103879.22;3722638;37;17878;-52
2022/03/20 01:00:32;;;;;;;;;103.50;80.00;;;;;-7.35;100.00;103880.09;3722556;38;17861;-50
2022/03/20 01:03:00;;;;;;;;;100.50;83.00;;;;;-7.50;100.00;103872.06;3722689;37;18147;-52
2022/03/20 01:05:28;;;;;;;;;102.50;85.75;;;;;-7.54;100.00;103886.06;3722397;37;18046;-52
2022/03/20 01:07:55;;;;;;;;;98.25;79.50;;;;;-7.53;100.00;103879.94;3722639;37;18140;-53
2022/03/20 01:10:22;;;;;;;;;103.75;81.00;;;;;-7.48;100.00;103876.47;3722592;37;17856;-50
2022/03/20 01:12:50;;;;;;;;;96.75;77.25;;;;;-7.45;100.00;103873.00;3722602;37;17841;-51
2022/03/20 01:15:17;;;;;;;;;97.25;74.50;;;;;-7.42;100.00;103873.03;3721984;38;18142;-52
2022/03/20 01:17:45;;;;;;;;;96.00;73.75;;;;;-7.49;100.00;103874.72;3722478;37;17967;-53
2022/03/20 01:20:12;;;;;;;;;95.00;70.25;;;;;-7.50;100.00;103878.22;3722552;38;17861;-53
2022/03/20 01:22:40;;;;;;;;;89.75;71.75;;;;;-7.45;100.00;103875.62;3721674;38;18001;-51
2022/03/20 01:25:08;;;;;;;;;95.25;74.00;;;;;-7.44;100.00;103872.12;3722299;38;17928;-52
2022/03/20 01:27:36;;;;;;;;;89.00;70.00;;;;;-7.36;100.00;103881.84;3722547;38;17990;-51
2022/03/20 01:30:05;;;;;;;;;89.50;65.75;;;;;-7.31;100.00;103868.72;3722295;37;17824;-50
2022/03/20 01:32:32;;;;;;;;;94.50;75.75;;;;;-7.36;100.00;103865.19;3722102;38;17885;-52
2022/03/20 01:35:00;;;;;;;;;81.25;64.75;;;;;-7.39;100.00;103860.78;3721585;37;18015;-53
2022/03/20 01:37:28;;;;;;;;;90.50;69.00;;;;;-7.38;100.00;103864.28;3722676;37;17829;-59
2022/03/20 01:39:55;;;;;;;;;94.25;69.25;;;;;-7.36;100.00;103868.69;3723120;37;17874;-57
2022/03/20 01:42:23;;;;;;;;;94.25;73.25;;;;;-7.27;100.00;103864.34;3723298;37;17798;-56
2022/03/20 01:44:50;;;;;;;;;91.00;68.25;;;;;-7.18;100.00;103859.16;3722912;38;17862;-57
2022/03/20 01:47:18;;;;;;;;;86.75;67.25;;;;;-7.06;100.00;103860.13;3722960;38;17827;-56
2022/03/20 01:49:46;;;;;;;;;93.25;70.25;;;;;-6.99;100.00;103858.41;3721922;37;17803;-52
2022/03/20 01:52:23;;;;;;;;;92.00;67.50;;;;;-7.04;100.00;103860.13;3722696;37;17798;-51
2022/03/20 01:54:51;;;;;;;;;93.25;71.25;;;;;-7.06;100.00;103862.75;3721925;37;17733;-52
2022/03/20 01:57:20;;;;;;;;;93.00;69.25;;;;;-6.96;100.00;103868.06;3721665;37;17795;-52
2022/03/20 01:59:52;;;;;;;;;94.75;74.75;;;;;-6.96;100.00;103865.44;3722405;37;17810;-53
2022/03/20 02:02:20;;;;;;;;;91.50;68.50;;;;;-6.94;100.00;103861.06;3722499;37;17804;-53
2022/03/20 02:04:47;;;;;;;;;89.00;67.75;;;;;-7.05;100.00;103861.00;3721712;37;17803;-52
2022/03/20 02:07:15;;;;;;;;;86.00;65.25;;;;;-7.13;100.00;103855.69;3722396;37;17803;-54
2022/03/20 02:09:43;;;;;;;;;87.50;65.25;;;;;-7.16;100.00;103863.56;3722684;37;17852;-53
2022/03/20 02:12:11;;;;;;;;;92.25;68.25;;;;;-7.19;100.00;103860.91;3721463;38;17759;-53
2022/03/20 02:14:40;;;;;;;;;86.00;67.75;;;;;-7.19;100.00;103860.91;3721873;37;17768;-56
2022/03/20 02:17:10;;;;;;;;;87.00;67.00;;;;;-7.20;100.00;103864.41;3722290;37;17761;-53
2022/03/20 02:19:39;;;;;;;;;87.00;63.75;;;;;-7.20;100.00;103859.12;3721563;37;18001;-50
2022/03/20 02:22:06;;;;;;;;;87.50;71.00;;;;;-7.20;100.00;103859.12;3721721;38;17768;-50
2022/03/20 02:24:44;;;;;;;;;92.25;72.25;;;;;-7.11;100.00;103859.19;3722592;38;17768;-51
2022/03/20 02:27:17;;;;;;;;;94.00;75.25;;;;;-7.05;100.00;103858.38;3722572;37;17751;-52
2022/03/20 02:29:49;;;;;;;;;93.00;73.00;;;;;-7.08;100.00;103856.59;3722454;37;17779;-52
2022/03/20 02:32:19;;;;;;;;;93.50;68.75;;;;;-7.17;100.00;103860.91;3721947;38;17732;-53
2022/03/20 02:34:47;;;;;;;;;95.00;71.25;;;;;-7.15;100.00;103857.41;3722500;37;17765;-54
2022/03/20 02:37:19;;;;;;;;;89.25;68.00;;;;;-7.21;100.00;103856.50;3721690;37;17750;-54
2022/03/20 02:39:48;;;;;;;;;91.25;69.25;;;;;-7.26;100.00;103850.31;3722418;37;17734;-53
2022/03/20 02:42:16;;;;;;;;;88.50;68.25;;;;;-7.41;100.00;103856.38;3721867;37;17774;-53
2022/03/20 02:45:07;;;;;;;;;85.75;67.25;;;;;-7.44;100.00;103861.59;3722223;38;17729;-51
2022/03/20 02:47:45;;;;;;;;;96.75;70.00;;;;;-7.42;100.00;103867.75;3722014;38;17714;-51
2022/03/20 02:50:18;;;;;;;;;96.25;70.00;;;;;-7.36;100.00;103859.91;3721971;37;17738;-50
2022/03/20 02:53:13;;;;;;;;;91.75;66.00;;;;;-7.38;100.00;103856.41;3722466;38;17714;-52
2022/03/20 02:55:45;;;;;;;;;85.75;68.00;;;;;-7.40;100.00;103853.75;3722676;37;17780;-51
2022/03/20 02:58:17;;;;;;;;;88.00;64.75;;;;;-7.39;100.00;103859.91;3722407;38;17696;-50
2022/03/20 03:00:45;;;;;;;;;82.00;63.50;;;;;-7.47;100.00;103865.09;3722411;38;17736;-49
2022/03/20 03:03:13;;;;;;;;;91.25;72.00;;;;;-7.48;100.00;103858.06;3722478;38;17696;-51
2022/03/20 03:05:42;;;;;;;;;94.00;71.25;;;;;-7.50;100.00;103859.81;3722577;37;17707;-51
2022/03/20 03:10:57;;;;;;;;;89.50;67.50;;;;;-7.42;100.00;103866.00;3722486;38;17697;-51
2022/03/20 03:13:37;;;;;;;;;94.00;69.25;;;;;-7.49;100.00;103855.44;3722695;37;17894;-52
2022/03/20 03:16:08;;;;;;;;;95.00;74.00;;;;;-7.55;100.00;103855.38;3722512;38;17683;-50
2022/03/20 03:18:37;;;;;;;;;91.25;67.50;;;;;-7.52;100.00;103863.28;3722695;37;17676;-53
2022/03/20 03:21:05;;;;;;;;;96.50;74.25;;;;;-7.50;100.00;103866.81;3722561;37;17669;-52
2022/03/20 03:23:36;;;;;;;;;95.00;72.25;;;;;-7.55;100.00;103864.16;3721792;37;17658;-51
2022/03/20 03:26:04;;;;;;;;;103.75;80.75;;;;;-7.53;100.00;103857.16;3722542;38;17668;-51
2022/03/20 03:28:34;;;;;;;;;93.50;73.00;;;;;-7.51;100.00;103854.53;3721608;37;17649;-53
2022/03/20 03:31:04;;;;;;;;;100.50;79.00;;;;;-7.57;100.00;103862.38;3722323;38;17770;-51
2022/03/20 03:33:34;;;;;;;;;90.50;70.00;;;;;-7.50;100.00;103859.81;3722687;37;17653;-51
2022/03/20 03:36:02;;;;;;;;;97.50;72.00;;;;;-7.41;100.00;103852.00;3722449;37;17743;-50
2022/03/20 03:38:34;;;;;;;;;79.75;62.25;;;;;-7.37;100.00;103848.53;3722512;38;17751;-55
2022/03/20 03:41:03;;;;;;;;;83.00;59.25;;;;;-7.33;100.00;103852.06;3722479;38;17652;-52
2022/03/20 03:43:30;;;;;;;;;89.75;68.75;;;;;-7.33;100.00;103849.41;3722657;37;17946;-51
2022/03/20 03:45:58;;;;;;;;;99.00;81.00;;;;;-7.41;100.00;103844.09;3722617;37;17673;-50
2022/03/20 03:48:26;;;;;;;;;97.50;78.75;;;;;-7.42;100.00;103863.37;3722550;38;18623;-50
2022/03/20 03:50:54;;;;;;;;;92.25;71.25;;;;;-7.44;100.00;103874.75;3721823;38;17633;-51
2022/03/20 03:53:22;;;;;;;;;90.50;67.00;;;;;-7.38;100.00;103869.56;3721862;38;18620;-54
2022/03/20 03:55:49;;;;;;;;;98.25;75.50;;;;;-7.39;100.00;103859.91;3722811;37;17628;-49
2022/03/20 03:58:17;;;;;;;;;98.00;77.00;;;;;-7.39;100.00;103858.16;3721782;37;17651;-51
2022/03/20 04:00:44;;;;;;;;;92.25;68.50;;;;;-7.33;100.00;103865.22;3722745;38;18618;-52
2022/03/20 04:03:12;;;;;;;;;93.75;70.25;;;;;-7.26;100.00;103863.47;3721717;37;17621;-50
2022/03/20 04:05:40;;;;;;;;;90.75;68.75;;;;;-7.26;100.00;103863.47;3722596;37;18615;-50
2022/03/20 04:08:09;;;;;;;;;88.75;67.50;;;;;-7.23;100.00;103868.75;3721746;37;18797;-50
2022/03/20 04:10:36;;;;;;;;;100.50;78.00;;;;;-7.18;100.00;103860.03;3722433;38;17628;-52
2022/03/20 04:13:05;;;;;;;;;94.25;76.75;;;;;-7.11;100.00;103875.00;3721662;37;18617;-51
2022/03/20 04:15:32;;;;;;;;;99.75;79.00;;;;;-7.06;100.00;103882.91;3722595;38;18618;-49
2022/03/20 04:18:01;;;;;;;;;94.75;70.25;;;;;-7.05;100.00;103880.31;3721706;37;18585;-50
2022/03/20 04:20:29;;;;;;;;;99.50;73.50;;;;;-7.16;100.00;103866.19;3721761;37;18590;-51
2022/03/20 04:25:42;;;;;;;;;93.75;68.00;;;;;-7.28;100.00;103889.81;3722652;37;18620;-49
2022/03/20 04:28:09;;;;;;;;;93.00;70.25;;;;;-7.23;100.00;103893.31;3722225;37;18581;-49
2022/03/20 04:30:37;;;;;;;;;97.50;76.00;;;;;-7.15;100.00;103888.13;3722443;37;18604;-51
2022/03/20 04:33:05;;;;;;;;;85.25;66.75;;;;;-7.12;100.00;103878.50;3722347;38;18659;-50
2022/03/20 04:35:33;;;;;;;;;92.00;69.25;;;;;-7.14;100.00;103877.59;3722589;37;18572;-50
2022/03/20 04:38:01;;;;;;;;;94.00;69.75;;;;;-7.05;100.00;103877.66;3722455;37;18553;-50
2022/03/20 04:40:29;;;;;;;;;109.50;92.75;;;;;-7.20;100.00;103853.00;3722451;38;18715;-53
2022/03/20 04:42:56;;;;;;;;;107.00;83.50;;;;;-7.12;100.00;103856.56;3722633;37;18574;-51
2022/03/20 04:45:24;;;;;;;;;100.50;77.25;;;;;-7.06;100.00;103865.38;3722503;37;18597;-50
2022/03/20 04:58:53;;;;;;;;;103.50;84.50;;;;;-6.78;100.00;103862.91;3722409;37;18550;-52
2022/03/20 05:01:20;;;;;;;;;98.50;75.25;;;;;-6.82;100.00;103869.03;3722363;38;18554;-51
2022/03/20 05:03:48;;;;;;;;;102.50;83.25;;;;;-6.81;100.00;103871.69;3721692;37;18649;-49
2022/03/20 05:06:15;;;;;;;;;89.50;69.25;;;;;-6.77;100.00;103868.19;3722523;37;18538;-50
2022/03/20 05:08:43;;;;;;;;;98.75;76.75;;;;;-6.63;100.00;103878.78;3722235;38;18539;-53
2022/03/20 05:13:55;;;;;;;;;97.25;82.75;;;;;-6.26;100.00;103871.03;3722529;37;18509;-52
2022/03/20 05:16:22;;;;;;;;;97.00;81.00;;;;;-6.15;100.00;103872.81;3722570;37;18509;-50
2022/03/20 05:18:50;;;;;;;;;99.75;81.25;;;;;-5.99;100.00;103871.09;3721608;37;18767;-51
2022/03/20 05:21:17;;;;;;;;;105.25;86.00;;;;;-5.76;100.00;103882.53;3721835;38;18514;-51
2022/03/20 05:23:45;;;;;;;;;101.00;86.00;;;;;-5.57;100.00;103893.97;3721587;38;18545;-52
2022/03/20 05:26:12;;;;;;;;;106.00;88.75;;;;;-5.30;100.00;103890.47;3721654;37;18519;-51
2022/03/20 05:28:39;;;;;;;;;95.50;84.75;;;;;-5.08;100.00;103873.69;3722492;38;18507;-52
2022/03/20 05:31:06;;;;;;;;;93.00;78.25;;;;;-4.94;100.00;103862.22;3722474;38;18514;-52
2022/03/20 05:33:34;;;;;;;;;98.00;84.00;;;;;-4.75;100.00;103856.03;3722719;37;18519;-51
2022/03/20 05:36:02;;;;;;;;;75.25;58.25;;;;;-4.52;100.00;103866.50;3722385;38;18481;-50
2022/03/20 05:38:31;;;;;;;;;82.25;60.75;;;;;-4.43;100.00;103869.97;3721578;38;18506;-50
2022/03/20 05:43:44;;;;;;;;;70.50;56.50;;;;;-4.08;100.00;103855.69;3722468;37;18734;-51
2022/03/20 05:46:11;;;;;;;;;76.25;59.00;;;;;-4.03;100.00;103860.06;3721736;37;18504;-51
2022/03/20 05:48:39;;;;;;;;;68.75;55.25;;;;;-3.92;100.00;103854.72;3721601;38;18506;-51
2022/03/20 05:51:07;;;;;;;;;74.75;59.00;;;;;-3.68;100.00;103861.59;3721538;37;18498;-52
2022/03/20 05:53:34;;;;;;;;;73.50;58.25;;;;;-3.48;100.00;103866.72;3722491;37;18588;-54
2022/03/20 05:58:46;;;;;;;;;77.00;59.00;;;;;-3.35;100.00;103866.59;3722543;38;18482;-51
2022/03/20 06:01:14;;;;;;;;;72.25;56.50;;;;;-3.33;100.00;103879.84;3722249;38;18399;-50
2022/03/20 06:03:42;;;;;;;;;71.50;56.75;;;;;-3.43;100.00;103884.31;3722486;38;21512;-52
2022/03/20 06:06:10;;;;;;;;;73.25;57.25;;;;;-3.33;100.00;103885.13;3722550;38;18443;-53
2022/03/20 06:08:38;;;;;;;;;77.25;58.50;;;;;-3.20;100.00;103888.56;3722688;38;21621;-48
2022/03/20 06:11:05;;;;;;;;;72.50;58.50;;;;;-3.18;100.00;103890.31;3721648;38;18473;-51
2022/03/20 06:13:35;;;;;;;;;78.50;60.25;;;;;-3.17;100.00;103872.62;3722346;38;18558;-50
2022/03/20 06:16:06;;;;;;;;;70.25;55.50;;;;;-3.08;100.00;103878.69;3722482;38;18447;-50
2022/03/20 06:18:34;;;;;;;;;72.50;55.00;;;;;-2.97;99.43;103870.66;3721623;37;18643;-51
2022/03/20 06:21:01;;;;;;;;;71.50;56.50;;;;;-2.76;99.71;103877.50;3722363;38;18455;-51
2022/03/20 06:23:29;;;;;;;;;72.75;56.50;;;;;-2.69;97.73;103876.53;3722464;37;21585;-50
2022/03/20 06:25:56;;;;;;;;;72.75;58.50;;;;;-2.70;95.90;103875.66;3722485;37;18449;-50
2022/03/20 06:28:24;;;;;;;;;72.00;58.00;;;;;-2.48;97.04;103881.56;3722651;37;18470;-49
2022/03/20 06:30:51;;;;;;;;;72.75;57.25;;;;;-2.57;94.79;103879.03;3722431;37;18442;-50
2022/03/20 06:33:18;;;;;;;;;72.25;57.50;;;;;-2.46;94.59;103887.75;3721775;37;18444;-51
2022/03/20 06:35:46;;;;;;;;;75.00;59.00;;;;;-2.36;93.44;103873.47;3722502;37;18400;-52
2022/03/20 06:38:14;;;;;;;;;71.00;57.00;;;;;-2.27;93.29;103861.88;3722328;38;18618;-50
2022/03/20 06:40:42;;;;;;;;;73.50;61.00;;;;;-2.25;92.00;103859.19;3722391;37;18408;-49
2022/03/20 06:43:09;;;;;;;;;76.00;60.50;;;;;-2.30;91.48;103869.88;3722163;38;21520;-52
2022/03/20 06:45:37;;;;;;;;;73.25;58.50;;;;;-2.02;92.08;103870.34;3721700;38;18436;-52
2022/03/20 06:48:04;;;;;;;;;69.50;54.75;;;;;-1.81;90.03;103869.16;3722624;38;18457;-54
2022/03/20 06:50:32;;;;;;;;;74.25;56.50;;;;;-1.87;87.80;103879.88;3722400;37;18400;-49
2022/03/20 06:53:04;;;;;;;;;81.00;61.25;;;;;-1.77;88.42;103866.44;3722537;37;18439;-51
2022/03/20 06:55:31;;;;;;;;;69.25;56.25;;;;;-1.71;87.70;103874.31;3722385;37;18392;-51
2022/03/20 06:57:59;;;;;;;;;75.00;58.25;;;;;-1.68;87.29;103868.09;3722081;38;18502;-50
2022/03/20 07:00:28;;;;;;;;;70.00;54.50;;;;;-1.64;87.13;103874.22;3721860;38;18378;-51
2022/03/20 07:03:03;;;;;;;;;72.75;58.00;;;;;-1.38;88.60;103872.00;3721781;37;18381;-49
2022/03/20 07:05:31;;;;;;;;;74.50;58.00;;;;;-1.34;85.67;103879.03;3722339;37;18428;-50
2022/03/20 07:07:59;;;;;;;;;71.25;56.50;;;;;-1.27;86.25;103864.72;3722405;37;18369;-51
2022/03/20 07:10:27;;;;;;;;;72.00;56.75;;;;;-1.05;85.62;103865.25;3722215;38;21544;-49
2022/03/20 07:13:48;;;;;;;;;58.00;49.25;;;;;-0.85;85.49;103867.50;3721615;37;18348;-50
2022/03/20 07:15:44;;;;;;;;;73.50;58.25;;;;;-0.52;85.35;103860.66;3721376;38;21444;-49
2022/03/20 07:18:12;;;;;;;;;74.00;58.00;;;;;-0.42;83.60;103863.06;3722295;38;21488;-51
2022/03/20 07:20:43;;;;;;;;;74.75;58.50;;;;;-0.35;85.93;103858.50;3721860;38;18383;-50
2022/03/20 07:23:12;;;;;;;;;74.00;58.25;;;;;-0.31;84.34;103860.19;3721657;38;18362;-51
2022/03/20 07:31:13;;;;;;;;;73.50;56.75;;;;;0.49;82.66;103840.56;3722192;38;21590;-52
2022/03/20 07:33:41;;;;;;;;;75.25;59.50;;;;;0.70;81.12;103837.34;3722251;37;21506;-51
2022/03/20 07:36:09;;;;;;;;;70.25;54.75;;;;;0.89;78.86;103843.06;3721587;38;21473;-52
2022/03/20 07:38:36;;;;;;;;;71.50;56.00;;;;;1.18;76.67;103848.47;3721679;37;18318;-55
2022/03/20 07:41:04;;;;;;;;;64.75;53.25;;;;;1.11;73.13;103841.56;3722333;38;18357;-50
2022/03/20 07:43:31;;;;;;;;;68.75;53.00;;;;;1.42;73.12;103848.72;3722316;37;18358;-49
2022/03/20 07:46:00;;;;;;;;;68.25;54.00;;;;;1.60;70.72;103840.13;3721303;37;18365;-49
2022/03/20 07:48:27;;;;;;;;;67.00;54.25;;;;;2.01;69.56;103838.91;3722405;37;21460;-48
2022/03/20 07:50:55;;;;;;;;;59.00;49.75;;;;;2.33;67.20;103846.75;3721557;38;21369;-48
2022/03/20 07:53:23;;;;;;;;;68.50;55.75;;;;;2.33;61.82;103838.72;3722013;38;21405;-49
2022/03/20 07:55:51;;;;;;;;;64.00;50.50;;;;;2.30;59.46;103833.47;3721199;38;21454;-48
2022/03/20 07:58:21;;;;;;;;;61.50;48.00;;;;;2.26;58.29;103826.47;3721422;37;21540;-49
2022/03/20 08:00:49;;;;;;;;;67.75;52.50;;;;;2.18;57.03;103836.53;3721901;37;21375;-50
2022/03/20 08:03:19;;;;;;;;;63.25;50.00;;;;;2.06;56.48;103838.75;3722398;38;21533;-49
2022/03/20 08:05:47;;;;;;;;;71.75;56.00;;;;;2.08;55.60;103832.41;3722181;38;21398;-48
2022/03/20 08:08:16;;;;;;;;;65.75;54.00;;;;;2.10;54.27;103827.91;3722571;37;21425;-47
2022/03/20 08:10:43;;;;;;;;;62.75;50.50;;;;;2.40;54.03;103828.72;3722259;37;21606;-48
2022/03/20 08:13:16;;;;;;;;;60.50;50.75;;;;;2.41;52.33;103816.22;3721215;37;21334;-48
2022/03/20 08:15:44;;;;;;;;;64.75;52.50;;;;;2.56;51.76;103815.72;3721381;37;21578;-49
2022/03/20 08:18:11;;;;;;;;;61.25;49.50;;;;;2.63;49.94;103807.41;3721454;37;21346;-49
2022/03/20 08:20:41;;;;;;;;;54.25;45.50;;;;;2.90;50.70;103805.56;3722046;37;21405;-49
2022/03/20 08:23:08;;;;;;;;;64.25;49.25;;;;;3.07;50.27;103798.75;3722219;38;21404;-50
2022/03/20 08:25:36;;;;;;;;;62.25;51.75;;;;;2.90;48.86;103802.87;3722271;37;21427;-48
2022/03/20 08:28:05;;;;;;;;;62.00;49.50;;;;;3.09;49.03;103791.53;3722128;37;21341;-48
2022/03/20 08:30:33;;;;;;;;;68.00;52.75;;;;;3.23;47.18;103791.88;3722397;38;21465;-49
2022/03/20 08:33:01;;;;;;;;;60.75;48.50;;;;;3.08;46.89;103787.97;3721904;37;21386;-49
2022/03/20 08:35:29;;;;;;;;;63.25;53.50;;;;;3.32;48.24;103780.81;3722153;38;21427;-49
2022/03/20 08:37:56;;;;;;;;;65.75;53.50;;;;;3.57;47.31;103776.28;3721571;37;21345;-49
2022/03/20 08:40:25;;;;;;;;;59.00;48.50;;;;;3.64;46.35;103771.53;3721623;37;21410;-49
2022/03/20 08:42:55;;;;;;;;;64.75;51.00;;;;;3.79;46.57;103762.03;3722301;38;21303;-49
2022/03/20 08:45:31;;;;;;;;;57.00;46.25;;;;;3.73;45.73;103764.94;3722223;37;21512;-49
2022/03/20 08:47:59;;;;;;;;;64.50;53.75;;;;;3.98;45.46;103755.88;3721497;37;21350;-48
2022/03/20 08:50:33;;;;;;;;;59.50;48.00;;;;;4.21;42.93;103748.66;3722369;37;21396;-48
2022/03/20 08:53:01;;;;;;;;;61.00;47.00;;;;;4.30;41.99;103746.47;3721638;37;21388;-48
2022/03/20 08:55:28;;;;;;;;;53.50;44.50;;;;;4.62;40.39;103754.94;3722222;38;21431;-48
2022/03/20 08:57:55;;;;;;;;;55.50;43.75;;;;;4.67;39.38;103739.53;3722395;38;21458;-49
2022/03/20 09:00:25;;;;;;;;;54.00;44.25;;;;;4.87;39.13;103749.34;3722280;38;21289;-50
2022/03/20 09:02:53;;;;;;;;;50.00;43.00;;;;;5.06;38.82;103749.41;3722181;38;21264;-51
2022/03/20 09:05:21;;;;;;;;;53.50;44.75;;;;;5.03;38.19;103722.69;3722184;37;21467;-55
2022/03/20 09:07:50;;;;;;;;;51.00;42.50;;;;;5.24;38.08;103722.53;3722294;37;21345;-53
2022/03/20 09:10:18;;;;;;;;;53.75;45.00;;;;;5.29;37.33;103725.03;3721175;37;21264;-55
2022/03/20 09:12:46;;;;;;;;;53.25;41.50;;;;;5.27;37.50;103721.53;3722279;37;21479;-54
2022/03/20 09:15:17;;;;;;;;;63.75;50.75;;;;;5.30;37.71;103714.22;3721501;37;21453;-54
2022/03/20 09:20:33;;;;;;;;;48.75;41.00;;;;;5.70;37.09;103700.69;3722156;37;21236;-50
2022/03/20 09:23:00;;;;;;;;;52.75;42.50;;;;;5.83;36.84;103713.41;3722690;37;21339;-50
2022/03/20 09:25:28;;;;;;;;;35.25;33.50;;;;;6.01;37.80;103719.75;3722862;37;21553;-51
2022/03/20 09:27:55;;;;;;;;;33.50;31.00;;;;;6.02;37.17;103708.03;3723179;38;21221;-50
2022/03/20 09:30:22;;;;;;;;;24.50;23.50;;;;;6.25;37.39;103705.03;3723157;37;20699;-52
2022/03/20 09:32:50;;;;;;;;;29.50;28.75;;;;;6.37;36.55;103708.91;3723152;38;21146;-50
2022/03/20 09:35:18;;;;;;;;;27.00;26.75;;;;;6.63;36.29;103700.34;3723234;38;21139;-54
2022/03/20 09:37:46;;;;;;;;;33.75;30.00;;;;;6.53;36.08;103692.84;3722782;38;21174;-53
2022/03/20 09:40:14;;;;;;;;;40.25;36.00;;;;;6.41;36.03;103677.34;3722210;37;21238;-59
2022/03/20 09:42:41;;;;;;;;;39.75;37.00;;;;;6.62;35.64;103679.78;3722373;38;21316;-51
2022/03/20 09:45:10;;;;;;;;;37.75;34.50;;;;;6.68;34.82;103681.28;3722432;37;21315;-52
2022/03/20 09:47:39;;;;;;;;;40.75;37.25;;;;;6.82;34.41;103673.31;3721612;37;21223;-55
2022/03/20 09:50:09;;;;;;;;;38.75;35.00;;;;;6.69;35.21;103684.84;3722469;38;21367;-50
2022/03/20 09:52:37;;;;;;;;;34.75;32.75;;;;;6.67;34.21;103659.81;3722627;37;21492;-51
2022/03/20 09:55:06;;;;;;;;;42.00;37.00;;;;;6.77;35.22;103659.22;3722385;38;21153;-49
2022/03/20 09:57:34;;;;;;;;;48.25;40.50;;;;;6.57;34.33;103654.06;3722518;38;21228;-49
2022/03/20 10:00:05;;;;;;;;;41.75;36.00;;;;;6.71;34.82;103647.94;3722199;37;21505;-49
2022/03/20 10:02:32;;;;;;;;;43.50;38.00;;;;;7.04;34.26;103637.13;3723088;38;21260;-50
2022/03/20 10:05:04;;;;;;;;;41.25;37.00;;;;;7.39;33.53;103645.91;3723322;38;21215;-50
2022/03/20 10:07:40;;;;;;;;;31.75;30.25;;;;;7.37;35.99;103637.03;3723595;37;21247;-49
2022/03/20 10:10:16;;;;;;;;;35.00;32.75;;;;;7.53;33.36;103648.69;3723189;37;21236;-49
2022/03/20 10:12:47;;;;;;;;;39.50;35.00;;;;;7.45;32.60;103643.72;3722433;38;21252;-50
2022/03/20 10:15:41;;;;;;;;;46.00;38.00;;;;;7.42;32.86;103634.94;3722339;37;21205;-52
2022/03/20 10:18:20;;;;;;;;;41.00;36.25;;;;;7.47;32.65;103628.34;3722307;38;21333;-50
2022/03/20 10:20:51;;;;;;;;;39.00;34.25;;;;;7.49;32.59;103636.34;3722289;37;21292;-51
2022/03/20 10:23:39;;;;;;;;;33.75;31.75;;;;;7.56;31.99;103630.50;3721555;37;21257;-50
2022/03/20 10:26:16;;;;;;;;;25.25;24.50;;;;;7.66;32.03;103622.75;3722238;37;21322;-51
2022/03/20 10:28:46;;;;;;;;;33.50;31.25;;;;;8.03;31.89;103623.25;3721248;38;21152;-51
2022/03/20 10:31:18;;;;;;;;;25.25;24.75;;;;;7.88;31.76;103603.47;3722513;37;21145;-52
2022/03/20 10:34:04;;;;;;;;;23.00;21.75;;;;;8.19;30.95;103610.56;3722659;38;21192;-52
2022/03/20 10:36:33;;;;;;;;;24.75;23.75;;;;;8.12;30.11;103639.75;3722226;37;21088;-51
2022/03/20 10:39:02;;;;;;;;;27.50;23.75;;;;;7.92;30.27;103599.63;3722691;37;21229;-50
2022/03/20 10:41:34;;;;;;;;;23.25;21.50;;;;;7.91;30.48;103596.06;3722439;37;21257;-51
2022/03/20 10:44:15;;;;;;;;;25.25;21.75;;;;;8.10;30.84;103593.13;3721612;38;21179;-50
2022/03/20 10:46:43;;;;;;;;;24.00;23.00;;;;;8.14;31.07;103578.47;3722233;37;21101;-51
2022/03/20 10:49:20;;;;;;;;;23.25;22.00;;;;;8.38;30.03;103583.34;3722123;37;21217;-52
2022/03/20 10:52:02;;;;;;;;;15.50;15.50;;;;;8.53;29.38;103577.84;3722425;37;20923;-51
2022/03/20 10:54:44;;;;;;;;;17.50;17.50;;;;;8.31;29.77;103593.63;3722558;37;21106;-52
2022/03/20 10:57:13;;;;;;;;;24.00;22.75;;;;;8.25;29.99;103596.72;3722621;37;21166;-50
2022/03/20 10:59:41;;;;;;;;;22.00;20.75;;;;;8.31;29.64;103577.44;3722103;38;21178;-52
2022/03/20 11:02:23;;;;;;;;;20.50;20.25;;;;;8.51;29.69;103562.72;3721959;38;21134;-49
2022/03/20 11:04:51;;;;;;;;;28.50;27.75;;;;;8.80;30.05;103566.28;3721113;37;21127;-51
2022/03/20 11:07:20;;;;;;;;;29.50;27.25;;;;;8.52;29.84;103562.63;3722017;37;21276;-50
2022/03/20 11:09:51;;;;;;;;;21.25;20.50;;;;;8.78;29.22;103568.22;3721268;37;21117;-50
2022/03/20 11:12:39;;;;;;;;;20.75;20.25;;;;;9.14;28.68;103551.41;3722279;37;20793;-52
2022/03/20 11:15:08;;;;;;;;;18.75;18.25;;;;;9.12;28.27;103570.44;3721468;38;21062;-52
2022/03/20 11:17:43;;;;;;;;;21.25;20.25;;;;;9.07;27.98;103569.88;3721313;37;21132;-50
2022/03/20 11:20:16;;;;;;;;;22.75;21.75;;;;;9.03;28.43;103543.16;3722598;38;21184;-51
2022/03/20 11:22:52;;;;;;;;;21.50;19.75;;;;;9.03;28.16;103564.75;3722462;38;21188;-51
2022/03/20 11:25:23;;;;;;;;;22.75;22.00;;;;;9.02;28.05;103542.28;3721670;37;21079;-48
2022/03/20 11:28:01;;;;;;;;;19.25;18.50;;;;;9.11;28.13;103536.28;3722465;37;21099;-50
2022/03/20 11:30:30;;;;;;;;;20.50;19.50;;;;;9.25;28.22;103524.56;3722387;37;21197;-52
2022/03/20 11:33:00;;;;;;;;;22.00;21.00;;;;;9.37;27.80;103523.72;3721696;37;21069;-50
2022/03/20 11:35:31;;;;;;;;;15.50;14.75;;;;;9.28;28.11;103532.47;3722397;37;20971;-49
2022/03/20 11:38:24;;;;;;;;;18.00;16.00;;;;;8.85;28.18;103521.78;3721732;37;21083;-50
2022/03/20 11:41:16;;;;;;;;;21.75;20.50;;;;;9.09;27.58;103513.91;3722494;38;21068;-51
2022/03/20 11:44:14;;;;;;;;;21.00;20.00;;;;;9.36;27.79;103504.91;3722420;38;21102;-51
2022/03/20 11:46:44;;;;;;;;;34.25;31.50;;;;;9.44;27.27;103516.06;3722521;37;21164;-50
2022/03/20 11:49:30;;;;;;;;;23.00;20.50;;;;;9.21;27.14;103514.91;3722435;38;21073;-51
2022/03/20 11:52:10;;;;;;;;;25.50;25.00;;;;;9.27;27.25;103501.00;3721686;37;21062;-50